Pinetta, Florida
Current Conditions -  °F | °C
As of 6:28 PM on Tuesday 25 Nov 2014 (Local Time) from KVLD Reporting Station
Heavy Rain Heavy Rain  
Wind Chill: 53°   Ceiling: 500
Heat Index: 53°   Visibility: 2.5mi
Dew Point: 52°   Wind: 3mph
Humidity: 96%   Direction: NA
Pressure: 30"   Gusts: NA
Location:  30.59°N, 83.35°W
Report Text: KVLD 252328Z VRB03KT 2 1/2SM +RA BR BKN005 OVC024 12/11 A3000 RMK AO2 P0007 T01170111
Loading
Personal Weather Stations






























Interactive Weather Map New forecast layout! Learn more

10-Day Weather Forecast

Advertisements
Track Severe Weather on mobile